Time;durP1;ratioP1;P1;durP2;ratioP2;P2;SDS_P1;SDS_P2;PMS_P1;PMS_P2;Temp;Humidity;BMP_temperature;BMP_pressure;BME280_temperature;BME280_humidity;BME280_pressure;Samples;Min_cycle;Max_cycle;Signal;HPM_P1;HPM_P2
2021/09/02 00:00:26;;;;;;;18.55;9.20;;;;;;;;;;4990626;28;20132;-70
2021/09/02 00:02:52;;;;;;;15.80;8.05;;;;;;;;;;4994374;28;20062;-69
2021/09/02 00:05:19;;;;;;;18.50;9.15;;;;;;;;;;4989424;28;20394;-70
2021/09/02 00:07:45;;;;;;;19.42;8.57;;;;;;;;;;4987391;28;20401;-69
2021/09/02 00:10:11;;;;;;;22.45;8.27;;;;;;;;;;4992016;28;20416;-69
2021/09/02 00:12:37;;;;;;;19.70;9.23;;;;;;;;;;4989343;28;20073;-69
2021/09/02 00:15:04;;;;;;;21.05;9.30;;;;;;;;;;5002260;28;20038;-69
2021/09/02 00:17:30;;;;;;;19.05;9.13;;;;;;;;;;4990513;28;20049;-69
2021/09/02 00:19:56;;;;;;;19.58;9.90;;;;;;;;;;4989336;28;20161;-69
2021/09/02 00:22:23;;;;;;;23.50;9.23;;;;;;;;;;5003152;28;20628;-69
2021/09/02 00:24:49;;;;;;;20.55;9.95;;;;;;;;;;4997199;28;20121;-69
2021/09/02 00:27:15;;;;;;;19.65;9.27;;;;;;;;;;4988565;28;20645;-69
2021/09/02 00:29:41;;;;;;;23.92;9.20;;;;;;;;;;4992712;28;20044;-70
2021/09/02 00:32:07;;;;;;;22.50;10.35;;;;;;;;;;4989142;28;20054;-69
2021/09/02 00:34:34;;;;;;;20.60;9.82;;;;;;;;;;4998324;28;20048;-69
2021/09/02 00:37:00;;;;;;;18.65;10.38;;;;;;;;;;4988873;28;20588;-69
2021/09/02 00:39:26;;;;;;;24.63;11.10;;;;;;;;;;4989062;28;20505;-69
2021/09/02 00:41:52;;;;;;;23.98;9.80;;;;;;;;;;4986128;28;20050;-70
2021/09/02 00:44:33;;;;;;;24.45;10.88;;;;;;;;;;4991371;28;20042;-69
2021/09/02 00:47:00;;;;;;;30.40;11.38;;;;;;;;;;4991768;28;20446;-70
2021/09/02 00:49:27;;;;;;;21.65;10.70;;;;;;;;;;4989619;28;20089;-70
2021/09/02 00:51:53;;;;;;;18.67;9.73;;;;;;;;;;4990301;28;20468;-69
2021/09/02 00:54:19;;;;;;;28.10;11.48;;;;;;;;;;4989472;28;20049;-69
2021/09/02 00:56:46;;;;;;;24.30;9.10;;;;;;;;;;5007480;28;20049;-70
2021/09/02 00:59:12;;;;;;;20.08;8.95;;;;;;;;;;4991300;28;20185;-70
2021/09/02 01:01:38;;;;;;;22.48;11.02;;;;;;;;;;5006594;28;20164;-70
2021/09/02 01:04:04;;;;;;;18.50;9.77;;;;;;;;;;5007159;28;20049;-69
2021/09/02 01:06:31;;;;;;;19.90;9.32;;;;;;;;;;4989311;28;20038;-69
2021/09/02 01:08:57;;;;;;;24.30;10.95;;;;;;;;;;4990184;28;20054;-69
2021/09/02 01:11:23;;;;;;;24.48;11.55;;;;;;;;;;5006838;28;20120;-69
2021/09/02 01:13:50;;;;;;;26.55;10.75;;;;;;;;;;5005181;28;20096;-69
2021/09/02 01:16:16;;;;;;;23.38;10.48;;;;;;;;;;5007785;28;21538;-69
2021/09/02 01:18:42;;;;;;;21.92;10.95;;;;;;;;;;5007237;28;20041;-69
2021/09/02 01:21:08;;;;;;;19.08;9.73;;;;;;;;;;5005099;28;20061;-69
2021/09/02 01:23:35;;;;;;;20.83;11.32;;;;;;;;;;4988390;28;20054;-69
2021/09/02 01:26:01;;;;;;;23.45;10.38;;;;;;;;;;4990118;28;20100;-69
2021/09/02 01:28:27;;;;;;;25.42;10.50;;;;;;;;;;5006621;28;20125;-70
2021/09/02 01:30:53;;;;;;;19.88;9.50;;;;;;;;;;4988547;28;20497;-69
2021/09/02 01:33:20;;;;;;;26.95;10.63;;;;;;;;;;5007315;28;20056;-69
2021/09/02 01:35:46;;;;;;;24.48;10.38;;;;;;;;;;4990012;28;20046;-69
2021/09/02 01:38:12;;;;;;;25.73;10.27;;;;;;;;;;4989919;28;20420;-69
2021/09/02 01:40:40;;;;;;;27.77;11.15;;;;;;;;;;4988305;28;20081;-69
2021/09/02 01:43:07;;;;;;;21.92;10.95;;;;;;;;;;4985511;28;20045;-69
2021/09/02 01:45:34;;;;;;;31.15;11.70;;;;;;;;;;4988826;28;20143;-70
2021/09/02 01:48:02;;;;;;;25.58;11.73;;;;;;;;;;4987734;28;20469;-70
2021/09/02 01:50:29;;;;;;;23.17;11.10;;;;;;;;;;4988848;28;20100;-70
2021/09/02 01:52:57;;;;;;;24.42;11.43;;;;;;;;;;4988540;28;20137;-69
2021/09/02 01:55:24;;;;;;;28.25;12.10;;;;;;;;;;5004564;28;20141;-69
2021/09/02 01:57:51;;;;;;;24.25;10.82;;;;;;;;;;4990280;28;20144;-69
2021/09/02 02:00:18;;;;;;;26.40;12.45;;;;;;;;;;5006877;28;20441;-69
2021/09/02 02:02:44;;;;;;;25.90;11.63;;;;;;;;;;5007055;28;20041;-69
2021/09/02 02:05:11;;;;;;;24.55;12.55;;;;;;;;;;5003215;28;20108;-70
2021/09/02 02:07:38;;;;;;;30.02;12.38;;;;;;;;;;4990552;28;20438;-70
2021/09/02 02:10:05;;;;;;;25.85;12.68;;;;;;;;;;4988594;28;20128;-69
2021/09/02 02:12:31;;;;;;;26.92;12.20;;;;;;;;;;5005884;28;20405;-69
2021/09/02 02:14:57;;;;;;;33.67;13.52;;;;;;;;;;5006930;28;20034;-69
2021/09/02 02:17:23;;;;;;;28.98;13.07;;;;;;;;;;4988974;28;20557;-69
2021/09/02 02:19:49;;;;;;;31.58;15.20;;;;;;;;;;4989549;28;20052;-70
2021/09/02 02:22:15;;;;;;;29.17;14.98;;;;;;;;;;4988449;28;20678;-69
2021/09/02 02:24:41;;;;;;;31.77;14.82;;;;;;;;;;4989973;28;20034;-69
2021/09/02 02:27:08;;;;;;;30.63;15.35;;;;;;;;;;4987978;28;20064;-70
2021/09/02 02:29:34;;;;;;;33.33;16.13;;;;;;;;;;4989365;28;20424;-69
2021/09/02 02:32:00;;;;;;;30.40;15.38;;;;;;;;;;5006133;28;20049;-69
2021/09/02 02:34:26;;;;;;;32.63;16.08;;;;;;;;;;5004914;28;20092;-69
2021/09/02 02:36:52;;;;;;;36.83;17.58;;;;;;;;;;4988888;28;20144;-69
2021/09/02 02:39:19;;;;;;;33.05;16.95;;;;;;;;;;4988954;28;20106;-69
2021/09/02 02:41:45;;;;;;;29.80;17.65;;;;;;;;;;4986894;28;20401;-70
2021/09/02 02:44:11;;;;;;;31.05;17.45;;;;;;;;;;5004473;28;20131;-69
2021/09/02 02:46:37;;;;;;;35.15;17.63;;;;;;;;;;4987557;28;20057;-69
2021/09/02 02:49:03;;;;;;;31.05;17.98;;;;;;;;;;5005712;28;20068;-70
2021/09/02 02:51:29;;;;;;;39.53;19.30;;;;;;;;;;5006341;28;20095;-69
2021/09/02 02:53:56;;;;;;;34.42;18.00;;;;;;;;;;5005109;28;20439;-69
2021/09/02 02:56:22;;;;;;;34.58;18.85;;;;;;;;;;4988326;28;20076;-69
2021/09/02 02:58:48;;;;;;;38.97;19.02;;;;;;;;;;5004960;28;20067;-70
2021/09/02 03:01:15;;;;;;;34.45;17.75;;;;;;;;;;4988683;28;20054;-70
2021/09/02 03:03:41;;;;;;;32.70;17.08;;;;;;;;;;5003480;28;20054;-69
2021/09/02 03:06:09;;;;;;;29.80;17.60;;;;;;;;;;5004521;28;20124;-69
2021/09/02 03:08:35;;;;;;;34.30;16.30;;;;;;;;;;4986806;28;20077;-70
2021/09/02 03:11:01;;;;;;;31.30;15.30;;;;;;;;;;4972130;28;20123;-69
2021/09/02 03:13:27;;;;;;;25.00;14.18;;;;;;;;;;5005407;28;20045;-69
2021/09/02 03:15:53;;;;;;;30.45;12.80;;;;;;;;;;4987098;28;20042;-70
2021/09/02 03:18:19;;;;;;;24.02;12.32;;;;;;;;;;5004558;28;20045;-69
2021/09/02 03:20:46;;;;;;;29.20;12.10;;;;;;;;;;4987817;28;20096;-69
2021/09/02 03:23:12;;;;;;;26.40;12.50;;;;;;;;;;5006234;28;20097;-69
2021/09/02 03:25:38;;;;;;;26.85;10.43;;;;;;;;;;5005200;28;20042;-69
2021/09/02 03:28:04;;;;;;;23.17;9.95;;;;;;;;;;4988169;28;20046;-70
2021/09/02 03:30:30;;;;;;;25.73;10.25;;;;;;;;;;4988936;28;20050;-69
2021/09/02 03:32:57;;;;;;;30.08;10.10;;;;;;;;;;4988250;28;20105;-69
2021/09/02 03:35:23;;;;;;;25.67;9.65;;;;;;;;;;4988951;28;20446;-69
2021/09/02 03:37:49;;;;;;;23.33;9.65;;;;;;;;;;5004976;28;20108;-69
2021/09/02 03:40:15;;;;;;;22.80;9.27;;;;;;;;;;4985137;28;20537;-69
2021/09/02 03:42:42;;;;;;;30.05;8.98;;;;;;;;;;5004951;28;20065;-70
2021/09/02 03:45:08;;;;;;;20.95;8.15;;;;;;;;;;5004992;28;20046;-69
2021/09/02 03:47:34;;;;;;;20.98;8.45;;;;;;;;;;4987738;28;20161;-69
2021/09/02 03:50:01;;;;;;;22.95;7.90;;;;;;;;;;4988265;28;20053;-69
2021/09/02 03:52:27;;;;;;;27.70;7.45;;;;;;;;;;5005744;28;20124;-69
2021/09/02 03:54:53;;;;;;;24.60;7.25;;;;;;;;;;5009278;28;20057;-69
2021/09/02 03:57:19;;;;;;;21.25;7.28;;;;;;;;;;4987949;28;20127;-69
2021/09/02 03:59:46;;;;;;;19.30;5.78;;;;;;;;;;4991513;28;20071;-69
2021/09/02 04:02:12;;;;;;;20.83;5.97;;;;;;;;;;5009732;28;20117;-69
2021/09/02 04:04:38;;;;;;;19.55;5.70;;;;;;;;;;4989923;28;20038;-69
2021/09/02 04:07:05;;;;;;;20.70;6.00;;;;;;;;;;4992629;28;20434;-69
2021/09/02 04:09:32;;;;;;;14.60;5.78;;;;;;;;;;5007656;28;20096;-69
2021/09/02 04:11:58;;;;;;;19.52;5.82;;;;;;;;;;5007192;28;20049;-69
2021/09/02 04:14:24;;;;;;;17.30;5.30;;;;;;;;;;4991705;28;20092;-68
2021/09/02 04:16:50;;;;;;;18.05;6.47;;;;;;;;;;4990367;28;20078;-69
2021/09/02 04:19:16;;;;;;;20.10;6.35;;;;;;;;;;4991143;28;20081;-70
2021/09/02 04:21:43;;;;;;;20.05;6.47;;;;;;;;;;4989676;28;20081;-69
2021/09/02 04:24:09;;;;;;;18.27;6.50;;;;;;;;;;4990710;28;20042;-69
2021/09/02 04:26:35;;;;;;;19.10;6.82;;;;;;;;;;5007473;28;20432;-69
2021/09/02 04:29:01;;;;;;;17.08;6.22;;;;;;;;;;4990615;28;20107;-69
2021/09/02 04:31:27;;;;;;;16.40;6.38;;;;;;;;;;5007855;28;20053;-69
2021/09/02 04:33:54;;;;;;;18.90;6.65;;;;;;;;;;5007920;28;20118;-69
2021/09/02 04:36:20;;;;;;;17.48;5.97;;;;;;;;;;4991136;28;20126;-69
2021/09/02 04:38:46;;;;;;;20.90;6.93;;;;;;;;;;4991299;28;20456;-69
2021/09/02 04:41:12;;;;;;;21.58;6.43;;;;;;;;;;4991256;28;20049;-69
2021/09/02 04:43:38;;;;;;;18.58;6.07;;;;;;;;;;5010237;28;20089;-69
2021/09/02 04:46:05;;;;;;;22.30;6.47;;;;;;;;;;4988868;28;20092;-69
2021/09/02 04:48:31;;;;;;;16.10;6.28;;;;;;;;;;4988077;28;20059;-69
2021/09/02 04:50:57;;;;;;;19.08;6.57;;;;;;;;;;4985656;28;20387;-69
2021/09/02 04:53:23;;;;;;;18.05;6.30;;;;;;;;;;4987247;28;20427;-70
2021/09/02 04:55:49;;;;;;;15.88;6.20;;;;;;;;;;4990690;28;20042;-71
2021/09/02 04:58:16;;;;;;;17.10;5.78;;;;;;;;;;5005811;28;20240;-70
2021/09/02 05:00:42;;;;;;;16.13;6.60;;;;;;;;;;5004891;28;20077;-70
2021/09/02 05:03:08;;;;;;;19.05;6.32;;;;;;;;;;4990518;28;20048;-71
2021/09/02 05:05:35;;;;;;;19.10;6.80;;;;;;;;;;5007590;28;20041;-70
2021/09/02 05:08:01;;;;;;;16.60;5.90;;;;;;;;;;4991864;28;21388;-70
2021/09/02 05:10:28;;;;;;;18.23;6.10;;;;;;;;;;4990325;28;20042;-71
2021/09/02 05:12:54;;;;;;;17.67;6.78;;;;;;;;;;4992092;28;20053;-70
2021/09/02 05:15:20;;;;;;;21.08;7.05;;;;;;;;;;5008149;28;20069;-71
2021/09/02 05:17:47;;;;;;;15.57;6.32;;;;;;;;;;4990618;28;20440;-71
2021/09/02 05:20:14;;;;;;;24.27;7.55;;;;;;;;;;4991401;28;20087;-71
2021/09/02 05:22:40;;;;;;;17.77;7.18;;;;;;;;;;4990012;28;20041;-71
2021/09/02 05:25:07;;;;;;;19.58;6.45;;;;;;;;;;4987959;28;20038;-70
2021/09/02 05:27:33;;;;;;;23.23;7.60;;;;;;;;;;4989185;28;20080;-70
2021/09/02 05:30:00;;;;;;;19.20;8.18;;;;;;;;;;4990563;28;20620;-70
2021/09/02 05:32:26;;;;;;;24.60;7.25;;;;;;;;;;4989907;28;20425;-71
2021/09/02 05:34:52;;;;;;;21.10;7.90;;;;;;;;;;5007069;28;20128;-70
2021/09/02 05:37:18;;;;;;;19.25;7.20;;;;;;;;;;4989600;28;20050;-70
2021/09/02 05:39:45;;;;;;;25.02;7.82;;;;;;;;;;4989588;28;20445;-70
2021/09/02 05:42:11;;;;;;;17.90;7.18;;;;;;;;;;5007298;28;20063;-70
2021/09/02 05:44:38;;;;;;;18.92;7.75;;;;;;;;;;4990591;28;20057;-71
2021/09/02 05:47:04;;;;;;;22.50;8.35;;;;;;;;;;5006080;28;20038;-71
2021/09/02 05:49:31;;;;;;;14.43;7.22;;;;;;;;;;4988453;28;20057;-71
2021/09/02 05:51:57;;;;;;;20.42;7.90;;;;;;;;;;4989133;28;20405;-71
2021/09/02 05:54:23;;;;;;;17.48;7.22;;;;;;;;;;4993467;28;20077;-71
2021/09/02 05:56:49;;;;;;;26.80;8.15;;;;;;;;;;4991890;28;20049;-71
2021/09/02 05:59:15;;;;;;;19.52;7.57;;;;;;;;;;4993239;28;20195;-70
2021/09/02 06:01:42;;;;;;;25.83;8.15;;;;;;;;;;4992167;28;20397;-71
2021/09/02 06:04:08;;;;;;;18.17;7.65;;;;;;;;;;5009859;28;20046;-71
2021/09/02 06:06:34;;;;;;;19.95;8.52;;;;;;;;;;4992275;28;20034;-71
2021/09/02 06:09:00;;;;;;;21.50;8.25;;;;;;;;;;5010699;28;20408;-71
2021/09/02 06:11:26;;;;;;;24.38;8.25;;;;;;;;;;4992141;28;20085;-71
2021/09/02 06:13:53;;;;;;;22.65;8.98;;;;;;;;;;4992779;28;20620;-71
2021/09/02 06:16:19;;;;;;;21.52;8.77;;;;;;;;;;4992071;28;20033;-71
2021/09/02 06:18:45;;;;;;;19.50;8.73;;;;;;;;;;4991979;28;20049;-71
2021/09/02 06:21:11;;;;;;;17.17;7.82;;;;;;;;;;4992852;28;20469;-71
2021/09/02 06:23:37;;;;;;;19.52;8.00;;;;;;;;;;4991150;28;20050;-71
2021/09/02 06:26:04;;;;;;;19.75;8.45;;;;;;;;;;5009810;28;20046;-71
2021/09/02 06:28:30;;;;;;;18.23;8.13;;;;;;;;;;4992649;28;20068;-71
2021/09/02 06:30:56;;;;;;;16.77;7.85;;;;;;;;;;4992901;28;20410;-71
2021/09/02 06:33:23;;;;;;;16.27;7.97;;;;;;;;;;4992640;28;20106;-71
2021/09/02 06:35:49;;;;;;;15.65;7.63;;;;;;;;;;4992381;28;20145;-71
2021/09/02 06:38:15;;;;;;;25.67;9.02;;;;;;;;;;4992526;28;20096;-71
2021/09/02 06:40:41;;;;;;;17.98;8.27;;;;;;;;;;4992247;28;20057;-71
2021/09/02 06:43:07;;;;;;;18.30;8.48;;;;;;;;;;4975833;28;20129;-71
2021/09/02 06:45:33;;;;;;;19.63;7.80;;;;;;;;;;5009648;28;20080;-71
2021/09/02 06:48:00;;;;;;;17.38;8.27;;;;;;;;;;5008953;28;20131;-70
2021/09/02 06:50:26;;;;;;;16.23;8.30;;;;;;;;;;4991114;28;20125;-71
2021/09/02 06:52:53;;;;;;;21.30;8.98;;;;;;;;;;4993630;28;20073;-72
2021/09/02 06:55:19;;;;;;;16.95;7.97;;;;;;;;;;4991898;28;20081;-70
2021/09/02 06:57:45;;;;;;;19.48;8.60;;;;;;;;;;4992687;28;20096;-70
2021/09/02 07:00:12;;;;;;;18.88;7.80;;;;;;;;;;5009287;28;20048;-69
2021/09/02 07:02:39;;;;;;;17.15;8.52;;;;;;;;;;5009012;28;20513;-69
2021/09/02 07:05:06;;;;;;;20.73;9.15;;;;;;;;;;5010919;28;20038;-69
2021/09/02 07:07:32;;;;;;;19.38;8.35;;;;;;;;;;5009730;28;20049;-70
2021/09/02 07:09:58;;;;;;;17.05;8.20;;;;;;;;;;4991613;28;20069;-70
2021/09/02 07:12:25;;;;;;;19.20;8.43;;;;;;;;;;4992558;28;20046;-69
2021/09/02 07:14:51;;;;;;;18.13;8.63;;;;;;;;;;4992485;28;20140;-70
2021/09/02 07:17:17;;;;;;;21.90;8.05;;;;;;;;;;5008813;28;20183;-70
2021/09/02 07:19:43;;;;;;;18.27;8.48;;;;;;;;;;4984389;28;20485;-69
2021/09/02 07:22:09;;;;;;;17.75;7.57;;;;;;;;;;4990333;28;20050;-69
2021/09/02 07:24:36;;;;;;;18.65;8.05;;;;;;;;;;4982766;28;20397;-69
2021/09/02 07:27:03;;;;;;;13.82;7.43;;;;;;;;;;5010987;28;20053;-69
2021/09/02 07:29:30;;;;;;;21.52;8.32;;;;;;;;;;5012847;28;20054;-70
2021/09/02 07:31:56;;;;;;;19.30;8.52;;;;;;;;;;5014800;28;20073;-70
2021/09/02 07:34:22;;;;;;;18.10;8.20;;;;;;;;;;4984744;28;20038;-70
2021/09/02 07:36:48;;;;;;;15.95;7.78;;;;;;;;;;4974244;28;20041;-70
2021/09/02 07:39:15;;;;;;;21.02;7.93;;;;;;;;;;5014954;28;20045;-69
2021/09/02 07:41:41;;;;;;;18.05;8.13;;;;;;;;;;4996523;28;20054;-69
2021/09/02 07:44:07;;;;;;;18.05;8.25;;;;;;;;;;4989245;28;20050;-69
2021/09/02 07:46:34;;;;;;;16.75;7.25;;;;;;;;;;4994269;28;20155;-70
2021/09/02 07:49:00;;;;;;;16.40;7.32;;;;;;;;;;4995191;28;20058;-69
2021/09/02 07:51:26;;;;;;;19.33;8.50;;;;;;;;;;4995091;28;20053;-69
2021/09/02 07:53:52;;;;;;;21.05;8.70;;;;;;;;;;4996014;28;20042;-70
2021/09/02 07:56:19;;;;;;;12.15;7.05;;;;;;;;;;4991689;28;20053;-70
2021/09/02 07:58:45;;;;;;;15.52;7.55;;;;;;;;;;4996727;28;20045;-69
2021/09/02 08:01:12;;;;;;;20.75;8.68;;;;;;;;;;5013495;28;20128;-70
2021/09/02 08:03:38;;;;;;;18.48;8.48;;;;;;;;;;5012104;28;20789;-69
2021/09/02 08:06:05;;;;;;;14.70;7.30;;;;;;;;;;4996502;28;20088;-69
2021/09/02 08:08:31;;;;;;;19.20;7.70;;;;;;;;;;4980275;28;20140;-70
2021/09/02 08:10:58;;;;;;;17.98;7.90;;;;;;;;;;4995749;28;20046;-69
2021/09/02 08:13:24;;;;;;;18.42;8.07;;;;;;;;;;4979925;28;20374;-71
2021/09/02 08:15:50;;;;;;;21.83;8.40;;;;;;;;;;4996371;28;20117;-69
2021/09/02 08:18:17;;;;;;;30.17;9.32;;;;;;;;;;5012902;28;20044;-70
2021/09/02 08:20:43;;;;;;;18.77;8.30;;;;;;;;;;4995848;28;20112;-70
2021/09/02 08:23:09;;;;;;;15.68;7.65;;;;;;;;;;4995235;28;20045;-70
2021/09/02 08:25:36;;;;;;;22.23;7.97;;;;;;;;;;4995046;28;20052;-69
2021/09/02 08:28:02;;;;;;;19.73;7.72;;;;;;;;;;4996067;28;20061;-70
2021/09/02 08:30:28;;;;;;;19.00;8.20;;;;;;;;;;5013435;28;20122;-70
2021/09/02 08:32:55;;;;;;;20.30;8.15;;;;;;;;;;5012448;28;20061;-69
2021/09/02 08:35:23;;;;;;;16.17;8.15;;;;;;;;;;4994632;28;20184;-70
2021/09/02 08:37:51;;;;;;;19.60;7.75;;;;;;;;;;4995495;28;20083;-70
2021/09/02 08:40:18;;;;;;;22.38;7.78;;;;;;;;;;4994000;28;20049;-70
2021/09/02 08:42:45;;;;;;;15.68;6.90;;;;;;;;;;5013303;28;20125;-69
2021/09/02 08:45:11;;;;;;;19.52;8.48;;;;;;;;;;4973407;28;20054;-70
2021/09/02 08:47:38;;;;;;;19.92;8.52;;;;;;;;;;4997246;28;20124;-69
2021/09/02 08:50:05;;;;;;;17.48;7.78;;;;;;;;;;5014261;28;20440;-69
2021/09/02 08:52:31;;;;;;;23.20;8.68;;;;;;;;;;5003957;28;20049;-70
2021/09/02 08:54:58;;;;;;;15.88;7.18;;;;;;;;;;5012788;28;20038;-70
2021/09/02 08:57:25;;;;;;;17.05;7.40;;;;;;;;;;4995191;28;20386;-69
2021/09/02 08:59:51;;;;;;;20.40;7.25;;;;;;;;;;5011952;28;20081;-70
2021/09/02 09:02:21;;;;;;;15.55;6.70;;;;;;;;;;4997326;28;20049;-69
2021/09/02 09:04:58;;;;;;;17.65;7.88;;;;;;;;;;5001383;28;20053;-70
2021/09/02 09:07:29;;;;;;;14.93;7.18;;;;;;;;;;4994559;28;20042;-70
2021/09/02 09:09:55;;;;;;;16.63;6.75;;;;;;;;;;5012689;28;20048;-70
2021/09/02 09:12:35;;;;;;;18.90;8.05;;;;;;;;;;4995461;28;20038;-69
2021/09/02 09:15:03;;;;;;;16.13;7.43;;;;;;;;;;4994119;28;20107;-70
2021/09/02 09:17:29;;;;;;;16.27;7.07;;;;;;;;;;4992817;28;20129;-70
2021/09/02 09:19:57;;;;;;;19.75;6.97;;;;;;;;;;5011568;28;20074;-70
2021/09/02 09:22:24;;;;;;;16.52;7.05;;;;;;;;;;5011850;28;20045;-70
2021/09/02 09:24:52;;;;;;;18.30;7.20;;;;;;;;;;4993254;28;20046;-70
2021/09/02 09:27:19;;;;;;;17.63;7.25;;;;;;;;;;5010398;28;20072;-69
2021/09/02 09:30:03;;;;;;;18.02;7.28;;;;;;;;;;5007589;28;20091;-70
2021/09/02 09:32:36;;;;;;;17.63;7.43;;;;;;;;;;4978373;28;20148;-70
2021/09/02 09:35:03;;;;;;;14.88;7.07;;;;;;;;;;4981698;28;20241;-70
2021/09/02 09:37:29;;;;;;;15.50;7.00;;;;;;;;;;4992852;28;20046;-69
2021/09/02 09:40:08;;;;;;;15.18;7.32;;;;;;;;;;5011419;28;21015;-70
2021/09/02 09:42:34;;;;;;;15.25;7.93;;;;;;;;;;4992628;28;20041;-70
2021/09/02 09:45:00;;;;;;;15.43;7.07;;;;;;;;;;4994101;28;20456;-70
2021/09/02 09:47:27;;;;;;;20.23;7.82;;;;;;;;;;4977706;28;20095;-70
2021/09/02 09:49:55;;;;;;;19.33;7.55;;;;;;;;;;5009192;28;20413;-70
2021/09/02 09:52:27;;;;;;;16.45;6.45;;;;;;;;;;4994180;28;20049;-70
2021/09/02 09:55:00;;;;;;;13.82;7.07;;;;;;;;;;4990250;28;20053;-70
2021/09/02 09:57:29;;;;;;;18.05;7.72;;;;;;;;;;4992936;28;20073;-70
2021/09/02 09:59:56;;;;;;;11.18;6.85;;;;;;;;;;5010734;28;20063;-70
2021/09/02 10:02:22;;;;;;;18.80;8.43;;;;;;;;;;5011305;28;20136;-70
2021/09/02 10:04:48;;;;;;;21.73;7.63;;;;;;;;;;5010446;28;20041;-70
2021/09/02 10:07:16;;;;;;;13.23;6.57;;;;;;;;;;4992114;28;20108;-70
2021/09/02 10:09:43;;;;;;;17.77;6.78;;;;;;;;;;4992406;28;20144;-70
2021/09/02 10:12:11;;;;;;;16.13;7.03;;;;;;;;;;4992868;28;20042;-70
2021/09/02 10:14:37;;;;;;;16.13;6.70;;;;;;;;;;4993129;28;20579;-70
2021/09/02 10:17:03;;;;;;;15.38;6.88;;;;;;;;;;4992617;28;20072;-70
2021/09/02 10:19:32;;;;;;;15.73;7.30;;;;;;;;;;5010190;28;20034;-70
2021/09/02 10:21:59;;;;;;;15.82;7.50;;;;;;;;;;5010896;28;20108;-70
2021/09/02 10:24:39;;;;;;;15.75;7.32;;;;;;;;;;4991889;28;20457;-70
2021/09/02 10:27:18;;;;;;;16.85;7.05;;;;;;;;;;4992233;28;20096;-70
2021/09/02 10:29:45;;;;;;;19.15;8.15;;;;;;;;;;4992250;28;20042;-69
2021/09/02 10:32:24;;;;;;;13.85;6.75;;;;;;;;;;4992725;28;20057;-70
2021/09/02 10:34:50;;;;;;;15.38;6.68;;;;;;;;;;4991612;28;20046;-70
2021/09/02 10:37:36;;;;;;;14.07;6.60;;;;;;;;;;4991799;28;20831;-70
2021/09/02 10:40:07;;;;;;;20.15;8.05;;;;;;;;;;4991782;28;20045;-69
2021/09/02 10:42:46;;;;;;;15.25;7.30;;;;;;;;;;4988845;28;20053;-69
2021/09/02 10:45:25;;;;;;;17.45;8.32;;;;;;;;;;4988203;28;20125;-70
2021/09/02 10:47:53;;;;;;;20.23;7.78;;;;;;;;;;5009812;28;20049;-70
2021/09/02 10:50:21;;;;;;;19.35;8.30;;;;;;;;;;4992489;28;20041;-69
2021/09/02 10:52:47;;;;;;;23.17;8.20;;;;;;;;;;4992458;28;20038;-70
2021/09/02 10:55:28;;;;;;;15.80;7.57;;;;;;;;;;5009575;28;20069;-70
2021/09/02 10:57:54;;;;;;;17.52;8.13;;;;;;;;;;4987502;28;20477;-70
2021/09/02 11:00:33;;;;;;;15.43;7.30;;;;;;;;;;4994189;28;20491;-70
2021/09/02 11:03:14;;;;;;;18.45;7.95;;;;;;;;;;5000613;28;20133;-70
2021/09/02 11:05:41;;;;;;;20.60;8.68;;;;;;;;;;4998345;28;20533;-70
2021/09/02 11:08:08;;;;;;;17.60;8.05;;;;;;;;;;5015587;28;20125;-70
2021/09/02 11:10:34;;;;;;;19.48;7.88;;;;;;;;;;5015576;28;20378;-70
2021/09/02 11:13:01;;;;;;;19.17;7.63;;;;;;;;;;4997750;28;20147;-70
2021/09/02 11:15:28;;;;;;;16.92;7.55;;;;;;;;;;4981052;28;20042;-70
2021/09/02 11:18:01;;;;;;;16.23;7.45;;;;;;;;;;4995273;28;20054;-70
2021/09/02 11:20:28;;;;;;;17.10;8.15;;;;;;;;;;4997338;28;20401;-70
2021/09/02 11:23:06;;;;;;;15.30;7.32;;;;;;;;;;4995764;28;20053;-70
2021/09/02 11:25:40;;;;;;;19.63;7.97;;;;;;;;;;4985200;28;20046;-70
2021/09/02 11:28:06;;;;;;;;;;;;;;;;;;5014615;28;20442;-70
2021/09/02 11:30:33;;;;;;;17.65;7.85;;;;;;;;;;5016030;28;19984;-70
2021/09/02 11:33:01;;;;;;;16.70;8.02;;;;;;;;;;4998094;28;20045;-70
2021/09/02 11:35:27;;;;;;;17.33;7.28;;;;;;;;;;5015361;28;20205;-70
2021/09/02 11:37:54;;;;;;;17.10;7.55;;;;;;;;;;4998017;28;20132;-70
2021/09/02 11:40:22;;;;;;;14.73;7.07;;;;;;;;;;4998069;28;20053;-70
2021/09/02 11:42:50;;;;;;;15.18;7.65;;;;;;;;;;4997079;28;20683;-70
2021/09/02 11:45:17;;;;;;;20.30;8.02;;;;;;;;;;5015880;28;20058;-70
2021/09/02 11:47:43;;;;;;;14.93;7.88;;;;;;;;;;4998479;28;20786;-70
2021/09/02 11:50:10;;;;;;;16.58;8.10;;;;;;;;;;4995919;28;20054;-70
2021/09/02 11:52:42;;;;;;;15.23;8.18;;;;;;;;;;4987767;28;20038;-70
2021/09/02 11:55:13;;;;;;;15.85;8.35;;;;;;;;;;5014482;28;20038;-69
2021/09/02 11:57:39;;;;;;;16.42;7.85;;;;;;;;;;4995416;28;20572;-69
2021/09/02 12:00:06;;;;;;;15.57;7.55;;;;;;;;;;4997032;28;20386;-70
2021/09/02 12:02:32;;;;;;;13.20;7.05;;;;;;;;;;4995520;28;20396;-70
2021/09/02 12:04:58;;;;;;;20.20;8.38;;;;;;;;;;5014178;28;20034;-70
2021/09/02 12:07:24;;;;;;;15.85;8.00;;;;;;;;;;5014531;28;20052;-70
2021/09/02 12:09:51;;;;;;;14.15;7.93;;;;;;;;;;4980710;28;20379;-70
2021/09/02 12:12:27;;;;;;;17.60;7.18;;;;;;;;;;4997777;28;20121;-70
2021/09/02 12:14:53;;;;;;;19.55;7.90;;;;;;;;;;5012165;28;20080;-70
2021/09/02 12:17:19;;;;;;;16.17;7.43;;;;;;;;;;4994118;28;20038;-70
2021/09/02 12:19:52;;;;;;;16.88;7.43;;;;;;;;;;4995082;28;20076;-69
2021/09/02 12:22:19;;;;;;;19.63;7.90;;;;;;;;;;4994528;28;20042;-70
2021/09/02 12:24:45;;;;;;;14.90;8.05;;;;;;;;;;4977619;28;20034;-70
2021/09/02 12:27:11;;;;;;;17.00;8.57;;;;;;;;;;5011683;28;20111;-70
2021/09/02 12:29:46;;;;;;;21.08;7.13;;;;;;;;;;4992394;28;20046;-69
2021/09/02 12:32:15;;;;;;;17.20;7.90;;;;;;;;;;5009145;28;20461;-69
2021/09/02 12:34:42;;;;;;;23.20;8.77;;;;;;;;;;5010462;28;20046;-70
2021/09/02 12:37:10;;;;;;;16.90;7.50;;;;;;;;;;4992771;28;20557;-69
2021/09/02 12:39:37;;;;;;;21.08;8.57;;;;;;;;;;5008086;28;20065;-69
2021/09/02 12:42:05;;;;;;;16.65;6.95;;;;;;;;;;4994118;28;20077;-69
2021/09/02 12:44:32;;;;;;;19.33;8.15;;;;;;;;;;5011949;28;20041;-70
2021/09/02 12:47:00;;;;;;;21.67;9.10;;;;;;;;;;4993322;28;20049;-69
2021/09/02 12:49:27;;;;;;;20.90;8.65;;;;;;;;;;5011576;28;20551;-70
2021/09/02 12:51:59;;;;;;;16.08;8.20;;;;;;;;;;4993356;28;20050;-70
2021/09/02 12:54:25;;;;;;;15.57;7.78;;;;;;;;;;4994518;28;20397;-70
2021/09/02 12:56:51;;;;;;;16.25;7.82;;;;;;;;;;4993971;28;20057;-70
2021/09/02 12:59:17;;;;;;;16.50;8.55;;;;;;;;;;4993591;28;20038;-70
2021/09/02 13:01:44;;;;;;;16.48;8.55;;;;;;;;;;4994138;28;20504;-70
2021/09/02 13:04:10;;;;;;;16.77;7.68;;;;;;;;;;4994121;28;20056;-70
2021/09/02 13:06:36;;;;;;;19.15;8.70;;;;;;;;;;4993175;28;20418;-69
2021/09/02 13:09:02;;;;;;;13.20;7.80;;;;;;;;;;4993673;28;20084;-69
2021/09/02 13:11:29;;;;;;;15.90;8.20;;;;;;;;;;4990057;28;20045;-69
2021/09/02 13:13:56;;;;;;;18.80;8.52;;;;;;;;;;4992822;28;20050;-69
2021/09/02 13:16:22;;;;;;;15.45;7.15;;;;;;;;;;5011947;28;20338;-70
2021/09/02 13:18:48;;;;;;;14.07;7.13;;;;;;;;;;5012004;28;20052;-69
2021/09/02 13:21:15;;;;;;;19.55;8.25;;;;;;;;;;5011199;28;20061;-69
2021/09/02 13:23:41;;;;;;;17.02;8.05;;;;;;;;;;5011506;28;20493;-69
2021/09/02 13:26:10;;;;;;;15.32;8.23;;;;;;;;;;5011662;28;20544;-69
2021/09/02 13:28:36;;;;;;;19.13;8.20;;;;;;;;;;5011297;28;20526;-69
2021/09/02 13:31:02;;;;;;;18.70;7.75;;;;;;;;;;4994002;28;20049;-69
2021/09/02 13:33:28;;;;;;;18.55;7.75;;;;;;;;;;5011841;28;20050;-69
2021/09/02 13:35:55;;;;;;;15.68;8.10;;;;;;;;;;4993119;28;20052;-69
2021/09/02 13:38:21;;;;;;;17.38;8.35;;;;;;;;;;5011568;28;20436;-69
2021/09/02 13:40:47;;;;;;;17.67;7.97;;;;;;;;;;4993995;28;20038;-69
2021/09/02 13:43:13;;;;;;;17.02;8.60;;;;;;;;;;4993014;28;20100;-69
2021/09/02 13:45:39;;;;;;;14.90;7.75;;;;;;;;;;4993273;28;20429;-69
2021/09/02 13:48:05;;;;;;;19.33;8.48;;;;;;;;;;4992140;28;20041;-69
2021/09/02 13:50:32;;;;;;;17.83;8.40;;;;;;;;;;4978210;28;20454;-69
2021/09/02 13:52:58;;;;;;;15.35;8.05;;;;;;;;;;5011047;28;20052;-69
2021/09/02 13:55:24;;;;;;;18.85;8.13;;;;;;;;;;5010776;28;20437;-69
2021/09/02 13:57:50;;;;;;;15.20;8.40;;;;;;;;;;5011202;28;20068;-69
2021/09/02 14:00:17;;;;;;;14.13;8.43;;;;;;;;;;4993531;28;20092;-69
2021/09/02 14:02:43;;;;;;;19.35;8.35;;;;;;;;;;4992956;28;20442;-69
2021/09/02 14:05:10;;;;;;;16.52;8.40;;;;;;;;;;4977202;28;20413;-69
2021/09/02 14:07:36;;;;;;;15.02;7.72;;;;;;;;;;5011220;28;20094;-69
2021/09/02 14:10:03;;;;;;;15.38;8.63;;;;;;;;;;4992570;28;20099;-69
2021/09/02 14:12:29;;;;;;;18.10;8.25;;;;;;;;;;4992880;28;20486;-69
2021/09/02 14:14:56;;;;;;;15.27;8.43;;;;;;;;;;4992379;28;20052;-69
2021/09/02 14:17:22;;;;;;;20.10;9.00;;;;;;;;;;4992618;28;20049;-69
2021/09/02 14:19:48;;;;;;;16.15;8.35;;;;;;;;;;5011627;28;20038;-69
2021/09/02 14:22:14;;;;;;;16.63;8.95;;;;;;;;;;5009446;28;20485;-69
2021/09/02 14:24:41;;;;;;;16.10;8.30;;;;;;;;;;5010567;28;20037;-69
2021/09/02 14:27:07;;;;;;;16.23;8.40;;;;;;;;;;5010865;28;20042;-69